Time;durP1;ratioP1;P1;durP2;ratioP2;P2;SDS_P1;SDS_P2;PMS_P1;PMS_P2;Temp;Humidity;BMP_temperature;BMP_pressure;BME280_temperature;BME280_humidity;BME280_pressure;Samples;Min_cycle;Max_cycle;Signal;HPM_P1;HPM_P2
2022/11/16 00:00:48;;;;;;;0.50;0.40;;;11.70;99.90;;;;;;5051061;28;20448;-79
2022/11/16 00:03:15;;;;;;;0.60;0.45;;;11.70;99.90;;;;;;5051263;28;20221;-80
2022/11/16 00:05:43;;;;;;;0.50;0.40;;;11.70;99.90;;;;;;5050318;28;20231;-79
2022/11/16 00:08:10;;;;;;;0.50;0.40;;;11.70;99.90;;;;;;5049561;28;20545;-79
2022/11/16 00:10:37;;;;;;;0.60;0.50;;;11.70;99.90;;;;;;5052526;28;20282;-78
2022/11/16 00:13:03;;;;;;;0.60;0.52;;;11.70;99.90;;;;;;5051903;28;20230;-79
2022/11/16 00:15:30;;;;;;;8.57;4.00;;;11.70;99.90;;;;;;5046591;28;20237;-79
2022/11/16 00:17:57;;;;;;;1.17;1.10;;;11.70;99.90;;;;;;5048837;28;20306;-78
2022/11/16 00:20:24;;;;;;;0.50;0.40;;;11.70;99.90;;;;;;5052035;28;20497;-79
2022/11/16 00:22:52;;;;;;;2.13;1.05;;;11.70;99.90;;;;;;5050987;28;20509;-78
2022/11/16 00:25:19;;;;;;;0.50;0.50;;;11.70;99.90;;;;;;5050287;28;20242;-78
2022/11/16 00:27:45;;;;;;;0.50;0.40;;;11.70;99.90;;;;;;5052336;28;20287;-79
2022/11/16 00:30:13;;;;;;;0.50;0.40;;;11.70;99.90;;;;;;5051888;28;20214;-78
2022/11/16 00:32:40;;;;;;;0.50;0.40;;;11.70;99.90;;;;;;5050627;28;20509;-78
2022/11/16 00:35:08;;;;;;;1.02;0.93;;;11.70;99.90;;;;;;5049821;28;20259;-79
2022/11/16 00:37:34;;;;;;;0.50;0.50;;;11.70;99.90;;;;;;5051868;28;20251;-78
2022/11/16 00:40:03;;;;;;;0.50;0.40;;;11.70;99.90;;;;;;5050576;28;20438;-79
2022/11/16 00:42:30;;;;;;;0.50;0.40;;;11.70;99.90;;;;;;5051272;28;20438;-79
2022/11/16 00:44:56;;;;;;;1.85;1.50;;;11.70;99.90;;;;;;5049079;28;20506;-79
2022/11/16 00:47:23;;;;;;;0.50;0.40;;;11.70;99.90;;;;;;5048262;28;20318;-79
2022/11/16 00:49:50;;;;;;;0.50;0.40;;;11.70;99.90;;;;;;5044010;28;20488;-78
2022/11/16 00:52:17;;;;;;;0.50;0.40;;;11.70;99.90;;;;;;5034961;28;20446;-79
2022/11/16 00:54:43;;;;;;;0.50;0.40;;;11.70;99.90;;;;;;5033579;28;20460;-79
2022/11/16 00:57:12;;;;;;;0.50;0.40;;;11.70;99.90;;;;;;5033582;28;20440;-78
2022/11/16 00:59:38;;;;;;;0.50;0.40;;;11.60;99.90;;;;;;5033479;28;20437;-79
2022/11/16 01:02:05;;;;;;;0.50;0.47;;;11.70;99.90;;;;;;5033044;28;20692;-78
2022/11/16 01:04:32;;;;;;;0.50;0.40;;;11.70;99.90;;;;;;5033254;28;20816;-78
2022/11/16 01:06:59;;;;;;;0.50;0.40;;;11.70;99.90;;;;;;5033028;28;20202;-78
2022/11/16 01:09:25;;;;;;;0.70;0.70;;;11.70;99.90;;;;;;5033199;28;20221;-78
2022/11/16 01:12:11;;;;;;;2.13;1.40;;;11.60;99.90;;;;;;5033334;28;20202;-79
2022/11/16 01:14:41;;;;;;;0.60;0.50;;;11.60;99.90;;;;;;5033066;28;20607;-78
2022/11/16 01:17:09;;;;;;;0.50;0.40;;;11.60;99.90;;;;;;5033022;28;20349;-77
2022/11/16 01:19:37;;;;;;;0.65;0.65;;;11.60;99.90;;;;;;5033032;28;20438;-78
2022/11/16 01:22:04;;;;;;;0.70;0.70;;;11.60;99.90;;;;;;5032946;28;20257;-78
2022/11/16 01:24:31;;;;;;;0.50;0.40;;;11.60;99.90;;;;;;5032631;28;20529;-79
2022/11/16 01:26:59;;;;;;;1.00;0.83;;;11.60;99.90;;;;;;5032656;28;20446;-79
2022/11/16 01:29:26;;;;;;;0.50;0.40;;;11.60;99.90;;;;;;5032847;28;20442;-78
2022/11/16 01:31:54;;;;;;;2.58;1.25;;;11.60;99.90;;;;;;5032778;28;20286;-78
2022/11/16 01:34:22;;;;;;;0.50;0.45;;;11.60;99.90;;;;;;5032152;28;20696;-78
2022/11/16 01:36:49;;;;;;;2.30;0.68;;;11.60;99.90;;;;;;5032363;28;20192;-78
2022/11/16 01:39:16;;;;;;;0.80;0.57;;;11.60;99.90;;;;;;5032793;28;20219;-78
2022/11/16 01:41:44;;;;;;;0.50;0.40;;;11.60;99.90;;;;;;5032269;28;20534;-77
2022/11/16 01:44:50;;;;;;;0.60;0.60;;;11.60;99.90;;;;;;5032043;28;20199;-78
2022/11/16 01:47:18;;;;;;;0.50;0.37;;;11.60;99.90;;;;;;5032070;28;20561;-78
2022/11/16 01:49:49;;;;;;;2.00;0.73;;;11.50;99.90;;;;;;5032359;28;20486;-78
2022/11/16 01:52:20;;;;;;;0.50;0.30;;;11.60;99.90;;;;;;5032175;28;20221;-78
2022/11/16 01:54:49;;;;;;;0.75;0.75;;;11.50;99.90;;;;;;5032287;28;20441;-78
2022/11/16 01:57:22;;;;;;;0.50;0.50;;;11.50;99.90;;;;;;5031796;28;20306;-78
2022/11/16 01:59:50;;;;;;;3.55;3.42;;;11.50;99.90;;;;;;5032142;28;20227;-78
2022/11/16 02:02:19;;;;;;;1.60;0.70;;;11.50;99.90;;;;;;5032164;28;20717;-78
2022/11/16 02:04:47;;;;;;;0.60;0.57;;;11.50;99.90;;;;;;5031685;28;20194;-78
2022/11/16 02:07:23;;;;;;;0.70;0.50;;;11.50;99.90;;;;;;5032215;28;20648;-78
2022/11/16 02:10:03;;;;;;;1.13;0.75;;;11.50;99.90;;;;;;5032247;28;20210;-78
2022/11/16 02:12:57;;;;;;;0.70;0.68;;;11.50;99.90;;;;;;5032228;28;20191;-78
2022/11/16 02:15:29;;;;;;;0.70;0.70;;;11.50;99.90;;;;;;5031242;28;20195;-79
2022/11/16 02:18:07;;;;;;;0.80;0.60;;;11.50;99.90;;;;;;5031700;28;20222;-78
2022/11/16 02:20:53;;;;;;;0.60;0.60;;;11.50;99.90;;;;;;5031718;28;20426;-79
2022/11/16 02:23:56;;;;;;;1.15;1.05;;;11.50;99.90;;;;;;5032012;28;20193;-78
2022/11/16 02:26:39;;;;;;;1.37;0.83;;;11.40;99.90;;;;;;5007922;28;20293;-78
2022/11/16 02:29:18;;;;;;;1.37;1.03;;;11.40;99.90;;;;;;5031602;28;20464;-78
2022/11/16 02:31:52;;;;;;;0.87;0.87;;;11.50;99.90;;;;;;5031644;28;20484;-79
2022/11/16 02:34:21;;;;;;;0.70;0.70;;;11.50;99.90;;;;;;5031369;28;20445;-78
2022/11/16 02:36:52;;;;;;;0.50;0.50;;;11.40;99.90;;;;;;5031995;28;20441;-78
2022/11/16 02:39:22;;;;;;;0.70;0.70;;;11.40;99.90;;;;;;5031807;28;20422;-78
2022/11/16 02:41:50;;;;;;;0.50;0.40;;;11.40;99.90;;;;;;5031941;28;20900;-78
2022/11/16 02:44:22;;;;;;;0.80;0.80;;;11.40;99.90;;;;;;5031253;28;20207;-78
2022/11/16 02:46:56;;;;;;;0.50;0.40;;;11.50;99.90;;;;;;5034364;28;20613;-77
2022/11/16 02:49:25;;;;;;;0.50;0.50;;;11.40;99.90;;;;;;5036024;28;20781;-77
2022/11/16 02:51:54;;;;;;;0.52;0.47;;;11.40;99.90;;;;;;5035056;28;20474;-78
2022/11/16 02:54:23;;;;;;;0.50;0.50;;;11.40;99.90;;;;;;5035433;28;20289;-78
2022/11/16 02:57:12;;;;;;;0.50;0.40;;;11.40;99.90;;;;;;5035387;28;20450;-78
2022/11/16 02:59:44;;;;;;;0.50;0.40;;;11.40;99.90;;;;;;5035708;28;20314;-78
2022/11/16 03:02:19;;;;;;;0.80;0.73;;;11.40;99.90;;;;;;5035041;28;20445;-78
2022/11/16 03:04:49;;;;;;;0.50;0.40;;;11.40;99.90;;;;;;5035324;28;20266;-78
2022/11/16 03:07:21;;;;;;;0.70;0.70;;;11.40;99.90;;;;;;5035335;28;20800;-78
2022/11/16 03:09:50;;;;;;;1.47;1.37;;;11.40;99.90;;;;;;5035451;28;20433;-78
2022/11/16 03:12:20;;;;;;;0.50;0.30;;;11.40;99.90;;;;;;5034997;28;20446;-78
2022/11/16 03:14:52;;;;;;;0.70;0.50;;;11.40;99.90;;;;;;5034912;28;20433;-78
2022/11/16 03:17:23;;;;;;;1.00;1.00;;;11.40;99.90;;;;;;5034992;28;20742;-78
2022/11/16 03:19:59;;;;;;;0.60;0.50;;;11.40;99.90;;;;;;5034862;28;20438;-78
2022/11/16 03:22:31;;;;;;;0.50;0.40;;;11.40;99.90;;;;;;5035132;28;20441;-78
2022/11/16 03:24:58;;;;;;;1.25;0.85;;;11.40;99.90;;;;;;5035174;28;20183;-78
2022/11/16 03:27:32;;;;;;;0.50;0.40;;;11.40;99.90;;;;;;5034611;28;20219;-78
2022/11/16 03:30:06;;;;;;;1.27;1.27;;;11.40;99.90;;;;;;5034741;28;20545;-78
2022/11/16 03:32:41;;;;;;;0.50;0.40;;;11.40;99.90;;;;;;5034772;28;20889;-78
2022/11/16 03:35:13;;;;;;;0.50;0.40;;;11.30;99.90;;;;;;5034679;28;20517;-77
2022/11/16 03:37:40;;;;;;;0.70;0.70;;;11.40;99.90;;;;;;5034448;28;20469;-78
2022/11/16 03:40:10;;;;;;;0.50;0.40;;;11.40;99.90;;;;;;5034920;28;20452;-78
2022/11/16 03:42:38;;;;;;;0.50;0.40;;;11.40;99.90;;;;;;5034349;28;20442;-78
2022/11/16 03:45:08;;;;;;;0.50;0.40;;;11.40;99.90;;;;;;5034345;28;20442;-76
2022/11/16 03:47:34;;;;;;;1.07;1.07;;;11.30;99.90;;;;;;5034702;28;20471;-78
2022/11/16 03:50:02;;;;;;;0.50;0.40;;;11.40;99.90;;;;;;5034386;28;20452;-78
2022/11/16 03:52:29;;;;;;;0.70;0.65;;;11.30;99.90;;;;;;5034698;28;20204;-78
2022/11/16 03:54:55;;;;;;;0.50;0.40;;;11.30;99.90;;;;;;5034151;28;20195;-78
2022/11/16 03:57:22;;;;;;;0.50;0.40;;;11.30;99.90;;;;;;5032597;28;20557;-78
2022/11/16 03:59:49;;;;;;;0.50;0.40;;;11.30;99.90;;;;;;5034317;28;20438;-78
2022/11/16 04:02:17;;;;;;;0.73;0.67;;;11.30;99.90;;;;;;5034492;28;20819;-78
2022/11/16 04:24:14;;;;;;;0.90;0.60;;;11.30;99.90;;;;;;5033603;28;20557;-78
2022/11/16 04:29:39;;;;;;;1.17;1.17;;;11.30;99.90;;;;;;4972856;28;20425;-79
2022/11/16 04:37:51;;;;;;;0.50;0.40;;;11.30;99.90;;;;;;5033415;28;20461;-78
2022/11/16 04:40:19;;;;;;;1.53;1.43;;;11.30;99.90;;;;;;5034016;28;20282;-78
2022/11/16 04:42:51;;;;;;;0.77;0.40;;;11.30;99.90;;;;;;5033380;28;20452;-79
2022/11/16 04:48:03;;;;;;;0.50;0.40;;;11.20;99.90;;;;;;5033583;28;21059;-79
2022/11/16 04:50:31;;;;;;;2.42;1.60;;;11.20;99.90;;;;;;5033401;28;21003;-78
2022/11/16 04:52:58;;;;;;;0.50;0.40;;;11.20;99.90;;;;;;5033370;28;20209;-79
2022/11/16 04:55:25;;;;;;;0.50;0.40;;;11.20;99.90;;;;;;5033257;28;20441;-80
2022/11/16 04:57:52;;;;;;;0.50;0.30;;;11.20;99.90;;;;;;5034527;28;20222;-78
2022/11/16 05:00:20;;;;;;;0.53;0.47;;;11.20;99.90;;;;;;5034021;28;20544;-80
2022/11/16 05:02:46;;;;;;;0.50;0.40;;;11.20;99.90;;;;;;5035433;28;20528;-80
2022/11/16 05:05:14;;;;;;;0.60;0.60;;;11.20;99.90;;;;;;5034764;28;20446;-81
2022/11/16 05:07:43;;;;;;;0.50;0.50;;;11.10;99.90;;;;;;5035051;28;20883;-80
2022/11/16 05:10:10;;;;;;;1.13;0.80;;;11.10;99.90;;;;;;5034534;28;20205;-80
2022/11/16 05:12:37;;;;;;;2.17;1.23;;;11.10;99.90;;;;;;5034327;28;20533;-80
2022/11/16 05:15:04;;;;;;;0.50;0.40;;;11.10;99.90;;;;;;5034243;28;20198;-80
2022/11/16 05:17:31;;;;;;;1.10;1.10;;;11.10;99.90;;;;;;5035232;28;20462;-79
2022/11/16 05:22:43;;;;;;;1.13;1.07;;;11.10;99.90;;;;;;5034630;28;20418;-80
2022/11/16 05:25:10;;;;;;;0.50;0.40;;;11.10;99.90;;;;;;5034040;28;20815;-79
2022/11/16 05:27:37;;;;;;;1.23;1.13;;;11.10;99.90;;;;;;5034217;28;20208;-79
2022/11/16 05:30:04;;;;;;;0.60;0.60;;;11.10;99.90;;;;;;5034054;28;20286;-80
2022/11/16 05:32:31;;;;;;;0.50;0.40;;;11.10;99.90;;;;;;5034053;28;20222;-81
2022/11/16 05:34:58;;;;;;;0.50;0.45;;;11.10;99.90;;;;;;5036308;28;20206;-80
2022/11/16 05:37:25;;;;;;;1.95;1.10;;;11.10;99.90;;;;;;5035652;28;20219;-81
2022/11/16 05:39:55;;;;;;;0.50;0.40;;;11.10;99.90;;;;;;5034297;28;20195;-80
2022/11/16 05:42:23;;;;;;;0.95;0.95;;;11.10;99.90;;;;;;5034868;28;20470;-81
2022/11/16 05:44:49;;;;;;;0.50;0.47;;;11.10;99.90;;;;;;5034234;28;20225;-80
2022/11/16 05:47:16;;;;;;;1.88;1.35;;;11.00;99.90;;;;;;5037655;28;20223;-81
2022/11/16 05:49:43;;;;;;;1.15;0.90;;;11.00;99.90;;;;;;5038480;28;20195;-80
2022/11/16 05:52:10;;;;;;;5.20;1.40;;;11.00;99.90;;;;;;5041426;28;20233;-80
2022/11/16 05:54:37;;;;;;;2.60;1.42;;;11.00;99.90;;;;;;5037502;28;20202;-79
2022/11/16 05:57:05;;;;;;;0.90;0.80;;;11.00;99.90;;;;;;5037770;28;20209;-79
2022/11/16 05:59:32;;;;;;;2.40;1.92;;;11.10;99.90;;;;;;5026831;28;20199;-79
2022/11/16 06:01:58;;;;;;;1.67;1.02;;;11.10;99.90;;;;;;5034121;28;20191;-81
2022/11/16 06:04:25;;;;;;;2.95;1.83;;;11.10;99.90;;;;;;5033404;28;20201;-79
2022/11/16 06:06:52;;;;;;;0.50;0.40;;;11.10;99.90;;;;;;5032594;28;20195;-79
2022/11/16 06:09:19;;;;;;;0.50;0.40;;;11.10;99.90;;;;;;5032122;28;20720;-80
2022/11/16 06:11:46;;;;;;;0.70;0.63;;;11.00;99.90;;;;;;5032299;28;20215;-79
2022/11/16 06:14:14;;;;;;;0.98;0.98;;;11.10;99.90;;;;;;5032356;28;20446;-80
2022/11/16 06:16:41;;;;;;;0.95;0.95;;;11.10;99.90;;;;;;5032242;28;20199;-77
2022/11/16 06:19:08;;;;;;;0.97;0.97;;;11.10;99.90;;;;;;5032019;28;20599;-79
2022/11/16 06:21:35;;;;;;;1.40;1.40;;;11.10;99.90;;;;;;5031647;28;20438;-79
2022/11/16 06:24:07;;;;;;;0.90;0.90;;;11.10;99.90;;;;;;5032031;28;20464;-79
2022/11/16 06:26:34;;;;;;;1.92;1.83;;;11.10;99.90;;;;;;5031694;28;20199;-80
2022/11/16 06:29:01;;;;;;;0.90;0.70;;;11.00;99.90;;;;;;5032136;28;20223;-79
2022/11/16 06:31:29;;;;;;;0.60;0.60;;;11.00;99.90;;;;;;5031913;28;20532;-77
2022/11/16 06:33:56;;;;;;;0.50;0.40;;;11.00;99.90;;;;;;5032171;28;21138;-78
2022/11/16 06:36:23;;;;;;;4.00;2.07;;;11.00;99.90;;;;;;5031863;28;20433;-78
2022/11/16 06:38:50;;;;;;;4.00;1.25;;;11.00;99.90;;;;;;5031848;28;20520;-79
2022/11/16 06:41:17;;;;;;;0.50;0.40;;;11.00;99.90;;;;;;5031931;28;20187;-80
2022/11/16 06:43:44;;;;;;;0.73;0.40;;;11.00;99.90;;;;;;5031842;28;20294;-77
2022/11/16 06:46:11;;;;;;;2.75;2.55;;;11.00;99.90;;;;;;5031613;28;20234;-79
2022/11/16 06:48:40;;;;;;;0.88;0.88;;;10.90;99.90;;;;;;5031988;28;20269;-79
2022/11/16 06:51:07;;;;;;;0.60;0.47;;;11.00;99.90;;;;;;5032102;28;20584;-79
2022/11/16 06:53:34;;;;;;;0.50;0.40;;;11.10;99.90;;;;;;5031648;28;20201;-79
2022/11/16 06:56:02;;;;;;;0.80;0.75;;;11.00;99.90;;;;;;5031818;28;20609;-79
2022/11/16 06:58:30;;;;;;;0.70;0.50;;;11.10;99.90;;;;;;5031336;28;20740;-79
2022/11/16 07:00:56;;;;;;;1.85;1.33;;;11.00;99.90;;;;;;5031140;28;20533;-79
2022/11/16 07:03:23;;;;;;;0.80;0.73;;;10.90;99.90;;;;;;5031544;28;20203;-79
2022/11/16 07:05:52;;;;;;;1.23;0.95;;;10.90;99.90;;;;;;5031319;28;20197;-78
2022/11/16 07:08:18;;;;;;;0.70;0.50;;;10.80;99.90;;;;;;5031221;28;20736;-79
2022/11/16 07:10:45;;;;;;;0.50;0.40;;;10.80;99.90;;;;;;5031347;28;20925;-79
2022/11/16 07:13:12;;;;;;;0.50;0.40;;;10.80;99.90;;;;;;5031317;28;20210;-78
2022/11/16 07:15:39;;;;;;;0.70;0.70;;;10.80;99.90;;;;;;5030945;28;20204;-77
2022/11/16 07:18:07;;;;;;;0.50;0.50;;;10.70;99.90;;;;;;5031847;28;20320;-80
2022/11/16 07:20:34;;;;;;;1.45;1.38;;;10.80;99.90;;;;;;5031582;28;20199;-79
2022/11/16 07:23:03;;;;;;;1.25;1.05;;;10.80;99.90;;;;;;5031350;28;20734;-78
2022/11/16 07:25:32;;;;;;;0.80;0.75;;;10.80;99.90;;;;;;5030973;28;20206;-79
2022/11/16 07:27:59;;;;;;;1.27;1.17;;;10.90;99.90;;;;;;5031079;28;20219;-79
2022/11/16 07:30:25;;;;;;;0.50;0.50;;;10.90;99.90;;;;;;5030214;28;20446;-79
2022/11/16 07:32:57;;;;;;;0.73;0.68;;;10.90;99.90;;;;;;5032925;28;20207;-78
2022/11/16 07:35:24;;;;;;;2.73;2.33;;;11.00;99.90;;;;;;5034589;28;20259;-79
2022/11/16 07:37:51;;;;;;;1.08;1.00;;;11.10;99.90;;;;;;5034748;28;20465;-79
2022/11/16 07:40:20;;;;;;;0.77;0.75;;;11.20;99.90;;;;;;5034792;28;20227;-79
2022/11/16 07:42:47;;;;;;;0.82;0.82;;;11.20;99.90;;;;;;5034696;28;20191;-78
2022/11/16 07:45:14;;;;;;;1.25;1.05;;;11.30;99.90;;;;;;5034522;28;20267;-78
2022/11/16 07:47:41;;;;;;;1.80;0.98;;;11.30;99.90;;;;;;5035125;28;20318;-78
2022/11/16 07:50:09;;;;;;;0.50;0.40;;;11.30;99.90;;;;;;5034668;28;20226;-79
2022/11/16 07:52:40;;;;;;;7.82;1.90;;;11.30;99.90;;;;;;5034491;28;20207;-79
2022/11/16 07:55:07;;;;;;;0.65;0.65;;;11.30;99.90;;;;;;5034606;28;20188;-74
2022/11/16 07:57:35;;;;;;;3.45;0.80;;;11.30;99.90;;;;;;5034659;28;20298;-78
2022/11/16 08:00:03;;;;;;;1.57;1.47;;;11.40;99.90;;;;;;5034850;28;20199;-78
2022/11/16 08:02:30;;;;;;;1.17;1.05;;;11.60;99.90;;;;;;5034734;28;20441;-77
2022/11/16 08:04:57;;;;;;;1.57;1.47;;;11.90;99.90;;;;;;5034487;28;20195;-78
2022/11/16 08:07:24;;;;;;;0.60;0.60;;;12.20;99.90;;;;;;5033977;28;21059;-78
2022/11/16 08:09:51;;;;;;;0.80;0.80;;;12.50;99.90;;;;;;5035214;28;20230;-78
2022/11/16 08:12:17;;;;;;;2.13;0.67;;;12.60;99.90;;;;;;5034484;28;20565;-78
2022/11/16 08:14:46;;;;;;;3.27;1.33;;;13.10;99.90;;;;;;5033988;28;20441;-78
2022/11/16 08:17:12;;;;;;;0.83;0.73;;;13.50;99.90;;;;;;5033996;28;20442;-78
2022/11/16 08:19:41;;;;;;;0.80;0.50;;;14.20;99.90;;;;;;5033790;28;20442;-79
2022/11/16 08:22:08;;;;;;;2.40;2.30;;;14.70;99.90;;;;;;5034231;28;20511;-78
2022/11/16 08:24:34;;;;;;;0.50;0.40;;;15.30;99.90;;;;;;5033920;28;20462;-78
2022/11/16 08:27:02;;;;;;;0.50;0.40;;;15.70;99.90;;;;;;5034021;28;20445;-79
2022/11/16 08:29:29;;;;;;;0.50;0.40;;;15.60;99.90;;;;;;5033903;28;20816;-78
2022/11/16 08:31:57;;;;;;;0.80;0.60;;;14.90;99.90;;;;;;5034479;28;20477;-77
2022/11/16 08:34:24;;;;;;;0.50;0.40;;;14.70;99.90;;;;;;5034553;28;20448;-78
2022/11/16 08:36:51;;;;;;;0.50;0.40;;;15.20;99.90;;;;;;5034117;28;20448;-78
2022/11/16 08:39:17;;;;;;;0.50;0.37;;;16.60;99.90;;;;;;5033862;28;20461;-79
2022/11/16 08:41:44;;;;;;;0.50;0.40;;;17.60;99.90;;;;;;5033623;28;20954;-79
2022/11/16 08:44:11;;;;;;;0.60;0.60;;;18.40;99.90;;;;;;5032617;28;20525;-78
2022/11/16 08:46:38;;;;;;;0.50;0.30;;;19.10;99.90;;;;;;5032790;28;20791;-77
2022/11/16 08:49:07;;;;;;;0.50;0.30;;;19.40;99.90;;;;;;5033042;28;20980;-78
2022/11/16 08:51:34;;;;;;;0.50;0.30;;;19.60;99.90;;;;;;5032238;28;20473;-78
2022/11/16 08:54:02;;;;;;;0.50;0.40;;;19.60;99.90;;;;;;5032538;28;20528;-78
2022/11/16 08:56:29;;;;;;;1.33;1.23;;;19.70;99.90;;;;;;5032788;28;20647;-78
2022/11/16 08:58:57;;;;;;;0.50;0.40;;;19.90;99.90;;;;;;5033140;28;20852;-79
2022/11/16 09:01:25;;;;;;;0.50;0.37;;;19.50;99.90;;;;;;5032385;28;20516;-78
2022/11/16 09:03:53;;;;;;;0.50;0.33;;;19.20;99.90;;;;;;5032631;28;20536;-75
2022/11/16 09:06:22;;;;;;;0.60;0.40;;;18.40;99.90;;;;;;5032963;28;20823;-78
2022/11/16 09:08:49;;;;;;;0.80;0.80;;;17.70;99.90;;;;;;5032471;28;20839;-78
2022/11/16 09:11:18;;;;;;;0.50;0.50;;;16.80;99.90;;;;;;5033374;28;20454;-77
2022/11/16 09:13:46;;;;;;;0.50;0.40;;;16.20;99.90;;;;;;5032654;28;21022;-76
2022/11/16 09:16:15;;;;;;;0.60;0.57;;;15.60;99.90;;;;;;5032615;28;20438;-77
2022/11/16 09:18:42;;;;;;;0.60;0.50;;;15.10;99.90;;;;;;5032525;28;20466;-78
2022/11/16 09:21:09;;;;;;;0.50;0.40;;;14.80;99.90;;;;;;5032312;28;20446;-78
2022/11/16 09:23:38;;;;;;;0.50;0.40;;;14.70;99.90;;;;;;5032285;28;20612;-78
2022/11/16 09:26:05;;;;;;;0.50;0.40;;;14.20;99.90;;;;;;5032171;28;20446;-78
2022/11/16 09:28:33;;;;;;;0.50;0.40;;;13.80;99.90;;;;;;5032346;28;20553;-76
2022/11/16 09:31:02;;;;;;;0.67;0.60;;;13.60;99.90;;;;;;5032071;28;20442;-77
2022/11/16 09:33:30;;;;;;;0.50;0.40;;;13.50;99.90;;;;;;5032362;28;20470;-77
2022/11/16 09:36:01;;;;;;;2.83;2.63;;;13.50;99.90;;;;;;5032295;28;20529;-78
2022/11/16 09:38:28;;;;;;;0.50;0.40;;;13.30;99.90;;;;;;5031934;28;20449;-77
2022/11/16 09:40:58;;;;;;;0.50;0.40;;;13.40;99.90;;;;;;5032117;28;20466;-78
2022/11/16 09:43:37;;;;;;;2.00;0.80;;;13.30;99.90;;;;;;5031954;28;20450;-77
2022/11/16 09:46:17;;;;;;;0.50;0.40;;;13.20;99.90;;;;;;5031928;28;20457;-78
2022/11/16 09:48:44;;;;;;;0.50;0.33;;;13.20;99.90;;;;;;5031935;28;20551;-77
2022/11/16 09:51:16;;;;;;;3.57;0.73;;;13.20;99.90;;;;;;5031745;28;20529;-77
2022/11/16 09:53:47;;;;;;;1.10;0.83;;;13.20;99.90;;;;;;5031202;28;20834;-77
2022/11/16 09:56:20;;;;;;;0.80;0.50;;;13.10;99.90;;;;;;5032330;28;20540;-77
2022/11/16 09:58:55;;;;;;;1.33;0.80;;;12.90;99.90;;;;;;5031919;28;20588;-77
2022/11/16 10:01:26;;;;;;;0.70;0.50;;;12.50;99.90;;;;;;5032526;28;20450;-76
2022/11/16 10:04:00;;;;;;;3.90;1.07;;;12.20;99.90;;;;;;5031640;28;20546;-75
2022/11/16 10:06:37;;;;;;;0.50;0.40;;;11.90;99.90;;;;;;5032314;28;20931;-78
2022/11/16 10:09:04;;;;;;;0.50;0.40;;;11.80;99.90;;;;;;5032084;28;20472;-77
2022/11/16 10:11:51;;;;;;;1.07;1.07;;;11.90;99.90;;;;;;5032458;28;20445;-79
2022/11/16 10:14:48;;;;;;;0.50;0.40;;;11.90;99.90;;;;;;5032247;28;21014;-78
2022/11/16 10:17:25;;;;;;;0.50;0.40;;;11.90;99.90;;;;;;5030855;28;21556;-78
2022/11/16 10:19:54;;;;;;;0.50;0.40;;;12.00;99.90;;;;;;5031682;28;20310;-76
2022/11/16 10:22:37;;;;;;;1.48;0.75;;;12.00;99.90;;;;;;5031480;28;20221;-78
2022/11/16 10:25:11;;;;;;;0.90;0.50;;;12.40;99.90;;;;;;5031136;28;20205;-78
2022/11/16 10:27:51;;;;;;;0.50;0.40;;;12.90;99.90;;;;;;5031116;28;20466;-78
2022/11/16 10:30:21;;;;;;;0.80;0.80;;;13.40;99.90;;;;;;5031598;28;20438;-78
2022/11/16 10:32:53;;;;;;;0.50;0.37;;;13.70;99.90;;;;;;5031260;28;20585;-78
2022/11/16 10:35:27;;;;;;;0.50;0.40;;;13.80;99.90;;;;;;5030753;28;20907;-78
2022/11/16 10:37:57;;;;;;;0.50;0.40;;;13.80;99.90;;;;;;5030733;28;20466;-78
2022/11/16 10:40:28;;;;;;;0.50;0.40;;;13.90;99.90;;;;;;5031531;28;20433;-79
2022/11/16 10:43:04;;;;;;;1.63;1.53;;;14.00;99.90;;;;;;5031441;28;20781;-78
2022/11/16 10:45:38;;;;;;;1.37;1.27;;;14.20;99.90;;;;;;5031819;28;20508;-77
2022/11/16 10:48:15;;;;;;;2.10;0.57;;;14.40;99.90;;;;;;5030773;28;20468;-77
2022/11/16 10:50:45;;;;;;;0.50;0.40;;;14.50;99.90;;;;;;5031381;28;20664;-77
2022/11/16 10:53:14;;;;;;;0.70;0.70;;;14.40;99.90;;;;;;5031022;28;20564;-78
2022/11/16 10:55:41;;;;;;;0.50;0.30;;;13.80;99.90;;;;;;5031030;28;20464;-77
2022/11/16 10:58:10;;;;;;;0.50;0.40;;;13.50;99.90;;;;;;5030813;28;20461;-76
2022/11/16 11:00:45;;;;;;;0.50;0.40;;;13.30;99.90;;;;;;5030934;28;20811;-76
2022/11/16 11:03:13;;;;;;;0.70;0.43;;;13.30;99.90;;;;;;5030600;28;20439;-77
2022/11/16 11:05:49;;;;;;;0.60;0.57;;;13.20;99.90;;;;;;5030742;28;20452;-77
2022/11/16 11:08:26;;;;;;;0.50;0.40;;;13.20;99.90;;;;;;5034350;28;20824;-78
2022/11/16 11:12:36;;;;;;;4.90;3.33;;;13.30;99.90;;;;;;5034902;28;20910;-77
2022/11/16 11:14:04;;;;;;;0.50;0.40;;;13.50;99.90;;;;;;5034454;28;20484;-76
2022/11/16 11:16:31;;;;;;;0.50;0.40;;;13.50;99.90;;;;;;5034796;28;20529;-77
2022/11/16 11:19:17;;;;;;;0.50;0.40;;;13.40;99.90;;;;;;5034804;28;20548;-75
2022/11/16 11:21:44;;;;;;;0.90;0.60;;;13.30;99.90;;;;;;5034709;28;20433;-77
2022/11/16 11:24:16;;;;;;;1.07;0.50;;;13.20;99.90;;;;;;5034218;28;21009;-77
2022/11/16 11:26:43;;;;;;;0.50;0.50;;;13.10;99.90;;;;;;5034823;28;20537;-77
2022/11/16 11:29:23;;;;;;;1.17;1.07;;;13.10;99.90;;;;;;5034625;28;20553;-77
2022/11/16 11:31:53;;;;;;;0.50;0.40;;;13.10;99.90;;;;;;5034601;28;20446;-77
2022/11/16 11:34:22;;;;;;;0.60;0.60;;;13.10;99.90;;;;;;5034248;28;20856;-77
2022/11/16 11:36:52;;;;;;;0.60;0.57;;;13.10;99.90;;;;;;5034352;28;20784;-77
2022/11/16 11:39:29;;;;;;;3.27;0.83;;;13.40;99.90;;;;;;5034344;28;20464;-78
2022/11/16 11:42:20;;;;;;;0.50;0.50;;;13.60;99.90;;;;;;5034252;28;20516;-77
2022/11/16 11:44:56;;;;;;;0.50;0.40;;;13.90;99.90;;;;;;5033588;28;20426;-77
2022/11/16 11:47:43;;;;;;;0.50;0.50;;;14.10;99.90;;;;;;5034181;28;20986;-77
2022/11/16 11:50:16;;;;;;;0.50;0.40;;;14.10;99.90;;;;;;5033855;28;20565;-77
2022/11/16 11:52:50;;;;;;;0.50;0.40;;;13.90;99.90;;;;;;5033952;28;20512;-77
2022/11/16 11:55:18;;;;;;;0.50;0.40;;;13.80;99.90;;;;;;5033867;28;20438;-76
2022/11/16 11:57:47;;;;;;;0.50;0.40;;;13.70;99.90;;;;;;5033725;28;20458;-77
2022/11/16 12:00:17;;;;;;;0.80;0.67;;;13.70;99.90;;;;;;5033358;28;20477;-77
2022/11/16 12:03:02;;;;;;;0.50;0.40;;;13.80;99.90;;;;;;5033856;28;20451;-77
2022/11/16 12:05:53;;;;;;;0.50;0.40;;;13.70;99.90;;;;;;5033488;28;20536;-77
2022/11/16 12:08:36;;;;;;;0.50;0.50;;;13.70;99.90;;;;;;5033574;28;20829;-77
2022/11/16 12:11:11;;;;;;;0.50;0.40;;;13.70;99.90;;;;;;5034557;28;20450;-74
2022/11/16 12:13:58;;;;;;;0.60;0.53;;;13.60;99.90;;;;;;5034436;28;20549;-76
2022/11/16 12:16:34;;;;;;;0.50;0.40;;;13.50;99.90;;;;;;5033737;28;20461;-77
2022/11/16 12:19:18;;;;;;;0.77;0.67;;;13.40;99.90;;;;;;5031648;28;20548;-76
2022/11/16 12:21:57;;;;;;;2.43;2.30;;;13.30;99.90;;;;;;5034049;28;20784;-77
2022/11/16 12:24:41;;;;;;;1.10;1.00;;;13.20;99.90;;;;;;5033448;28;20444;-77
2022/11/16 12:27:19;;;;;;;0.70;0.70;;;13.20;99.90;;;;;;5033585;28;20461;-77
2022/11/16 12:29:55;;;;;;;0.50;0.30;;;13.10;99.90;;;;;;5033048;28;20987;-77
2022/11/16 12:33:02;;;;;;;0.50;0.40;;;13.20;99.90;;;;;;5032685;28;20442;-76
2022/11/16 12:35:42;;;;;;;0.60;0.60;;;13.20;99.90;;;;;;4952556;29;20426;-77
2022/11/16 12:38:26;;;;;;;0.50;0.50;;;13.30;99.90;;;;;;4952538;28;20473;-76
2022/11/16 12:41:07;;;;;;;14.93;0.80;;;13.30;99.90;;;;;;4952233;28;20446;-76
2022/11/16 12:43:44;;;;;;;0.50;0.50;;;13.30;99.90;;;;;;4952904;29;20414;-77
2022/11/16 12:46:20;;;;;;;0.50;0.40;;;13.20;99.90;;;;;;4952344;28;20440;-74
2022/11/16 12:49:26;;;;;;;0.50;0.40;;;13.20;99.90;;;;;;4952560;28;20461;-77
2022/11/16 12:52:09;;;;;;;11.53;1.13;;;13.20;99.90;;;;;;4947934;29;20440;-78
2022/11/16 12:54:55;;;;;;;32.83;1.67;;;13.20;99.90;;;;;;4952426;28;20584;-78
2022/11/16 12:57:30;;;;;;;0.60;0.50;;;13.30;99.90;;;;;;4953288;28;20466;-78
2022/11/16 13:00:06;;;;;;;0.50;0.40;;;13.50;99.90;;;;;;4952336;29;20936;-75
2022/11/16 13:02:56;;;;;;;3.13;1.23;;;13.60;99.90;;;;;;4952918;29;20550;-76
2022/11/16 13:05:35;;;;;;;2.97;0.73;;;13.90;99.90;;;;;;4962052;28;20836;-78
2022/11/16 13:08:07;;;;;;;0.60;0.50;;;14.00;99.90;;;;;;5032686;28;20461;-76
2022/11/16 13:10:37;;;;;;;0.50;0.40;;;14.10;99.90;;;;;;5033087;28;20521;-77
2022/11/16 13:13:13;;;;;;;0.50;0.40;;;14.20;99.90;;;;;;5033651;28;20474;-76
2022/11/16 13:15:45;;;;;;;0.50;0.30;;;14.30;99.90;;;;;;5032276;28;20436;-75
2022/11/16 13:18:15;;;;;;;0.50;0.40;;;14.40;99.90;;;;;;5032879;28;20466;-76
2022/11/16 13:20:51;;;;;;;0.70;0.50;;;14.70;99.90;;;;;;5032425;28;20448;-76
2022/11/16 13:23:24;;;;;;;0.50;0.40;;;15.00;99.90;;;;;;5032781;28;20440;-75
2022/11/16 13:25:56;;;;;;;0.50;0.50;;;15.10;99.90;;;;;;5031799;28;20444;-76
2022/11/16 13:28:29;;;;;;;0.50;0.30;;;15.20;99.90;;;;;;5032578;28;20866;-76
2022/11/16 13:31:04;;;;;;;0.50;0.40;;;15.40;99.90;;;;;;5032188;28;20866;-77
2022/11/16 13:33:40;;;;;;;0.50;0.40;;;15.60;99.90;;;;;;5032635;28;20552;-78
2022/11/16 13:36:44;;;;;;;0.50;0.33;;;15.70;99.90;;;;;;5032250;28;20441;-78
2022/11/16 13:39:13;;;;;;;0.50;0.40;;;16.00;99.90;;;;;;5032372;28;20470;-78